createdAt,value
2017-05-21T16:53:28.734Z,32.90
2017-05-21T17:02:34.179Z,45.80
2017-05-21T17:05:02.535Z,35.80
2017-05-21T17:07:30.851Z,34.90
2017-05-21T17:09:59.457Z,34.20
2017-05-21T17:12:27.788Z,34.20
2017-05-21T17:27:40.058Z,27.50
2017-05-21T17:30:26.768Z,29.00
2017-05-21T17:32:56.036Z,28.90
2017-05-21T17:35:25.011Z,29.10
2017-05-21T17:37:56.078Z,29.10
2017-05-21T17:40:33.177Z,29.60
2017-05-21T17:43:05.013Z,29.30
2017-05-21T17:48:27.278Z,29.30
2017-05-21T17:50:55.629Z,29.20
2017-05-21T17:53:24.023Z,29.30
2017-05-21T17:55:52.670Z,29.50
2017-05-21T17:58:21.799Z,29.50
2017-05-21T18:00:50.261Z,29.60
2017-05-21T18:03:20.384Z,29.90
2017-05-21T18:05:54.270Z,30.00
2017-05-21T18:08:28.367Z,30.40
2017-05-21T18:14:13.048Z,31.40
2017-05-21T18:21:56.326Z,32.10
2017-05-21T18:24:25.764Z,32.30
2017-05-21T18:26:54.271Z,32.60
2017-05-21T18:29:23.300Z,32.70
2017-05-21T18:31:51.828Z,33.00
2017-05-21T18:34:20.922Z,33.10
2017-05-21T18:36:50.841Z,33.30
2017-05-21T18:39:20.314Z,33.50
2017-05-21T18:41:50.876Z,33.70
2017-05-21T18:44:19.805Z,34.10
2017-05-21T18:46:48.873Z,34.20
2017-05-21T18:49:18.067Z,34.40
2017-05-21T18:51:47.128Z,34.70
2017-05-21T18:54:15.567Z,35.00
2017-05-21T18:56:44.238Z,35.50
2017-05-21T18:59:16.266Z,35.70
2017-05-21T19:01:45.140Z,36.00
2017-05-21T19:04:15.283Z,36.30
2017-05-21T19:06:44.282Z,36.50
2017-05-21T19:09:13.572Z,36.60
2017-05-21T19:11:42.876Z,36.80
2017-05-21T19:14:11.465Z,37.40
2017-05-21T19:16:39.908Z,37.80
2017-05-21T19:19:07.792Z,37.90
2017-05-21T19:21:36.387Z,38.50
2017-05-21T19:24:04.886Z,38.70
2017-05-21T19:26:35.733Z,38.90
2017-05-21T19:29:03.476Z,39.00
2017-05-21T19:31:31.864Z,39.60
2017-05-21T19:34:00.686Z,40.00
2017-05-21T19:36:29.139Z,40.30
2017-05-21T19:38:57.553Z,40.40
2017-05-21T19:41:26.375Z,40.70
2017-05-21T19:43:54.790Z,41.00
2017-05-21T19:46:23.199Z,41.10
2017-05-21T19:48:51.959Z,41.30
2017-05-21T19:51:20.278Z,41.50
2017-05-21T19:53:48.575Z,41.90
2017-05-21T19:56:18.927Z,42.20
2017-05-21T19:58:47.767Z,42.50
2017-05-21T20:01:16.291Z,42.70
2017-05-21T20:03:45.480Z,42.60
2017-05-21T20:06:13.880Z,43.20
2017-05-21T20:08:44.950Z,43.60
2017-05-21T20:11:13.697Z,43.90
2017-05-21T20:13:41.291Z,43.80
2017-05-21T20:16:09.609Z,44.40
2017-05-21T20:18:38.222Z,44.60
2017-05-21T20:21:06.562Z,44.70
2017-05-21T20:23:34.880Z,44.70
2017-05-21T20:26:03.485Z,45.20
2017-05-21T20:28:31.849Z,45.20
2017-05-21T20:31:00.184Z,45.40
2017-05-21T20:33:28.768Z,45.50
2017-05-21T20:35:57.082Z,45.50
2017-05-21T20:38:25.403Z,45.50
2017-05-21T20:40:53.340Z,45.50
2017-05-21T20:43:21.702Z,45.50
2017-05-21T20:45:50.034Z,45.60
2017-05-21T20:48:18.776Z,45.70
2017-05-21T20:50:47.094Z,45.80
2017-05-21T20:53:15.421Z,46.00
2017-05-21T20:55:44.104Z,46.10
2017-05-21T20:58:11.666Z,46.00
2017-05-21T21:00:40.001Z,45.80
2017-05-21T21:03:08.613Z,45.90
2017-05-21T21:05:36.961Z,45.90
2017-05-21T21:08:05.293Z,45.90
2017-05-21T21:10:35.800Z,45.90
2017-05-21T21:13:04.117Z,45.90
2017-05-21T21:15:32.478Z,46.00
2017-05-21T21:18:01.256Z,45.80
2017-05-21T21:20:29.611Z,45.80
2017-05-21T21:22:57.287Z,45.90
2017-05-21T21:25:26.106Z,46.30
2017-05-21T21:27:55.146Z,45.90
2017-05-21T21:30:23.688Z,46.40
2017-05-21T21:32:52.395Z,46.30
2017-05-21T21:35:20.741Z,46.20
2017-05-21T21:37:49.054Z,46.20
2017-05-21T21:40:16.913Z,46.20
2017-05-21T21:42:45.237Z,46.40
2017-05-21T21:45:13.570Z,46.30
2017-05-21T21:47:42.209Z,46.30
2017-05-21T21:50:10.532Z,46.40
2017-05-21T21:52:38.078Z,46.50
2017-05-21T21:55:06.632Z,46.70
2017-05-21T21:57:34.955Z,46.90
2017-05-21T22:00:03.287Z,47.10
2017-05-21T22:02:31.160Z,47.10
2017-05-21T22:04:59.478Z,47.20
2017-05-21T22:07:27.803Z,47.30
2017-05-21T22:09:55.694Z,47.40
2017-05-21T22:12:23.256Z,47.60
2017-05-21T22:14:51.622Z,47.50
2017-05-21T22:17:20.261Z,47.90
2017-05-21T22:19:48.584Z,47.90
2017-05-21T22:22:16.935Z,48.10
2017-05-21T22:24:45.670Z,48.10
2017-05-21T22:27:14.144Z,48.10
2017-05-21T22:29:42.517Z,48.30
2017-05-21T22:32:11.103Z,48.30
2017-05-21T22:34:39.410Z,48.50
2017-05-21T22:37:07.740Z,49.00
2017-05-21T22:39:36.355Z,48.60
2017-05-21T22:42:04.677Z,48.80
2017-05-21T22:44:32.243Z,48.80
2017-05-21T22:47:00.880Z,48.90
2017-05-21T22:49:29.186Z,49.10
2017-05-21T22:51:57.497Z,49.20
2017-05-21T22:54:26.042Z,49.30
2017-05-21T22:56:54.352Z,49.40
2017-05-21T22:59:22.677Z,49.50
2017-05-21T23:01:51.328Z,49.60
2017-05-21T23:04:18.902Z,49.70
2017-05-21T23:06:47.229Z,49.90
2017-05-21T23:09:15.776Z,50.10
2017-05-21T23:11:43.335Z,50.10
2017-05-21T23:14:11.650Z,50.30
2017-05-21T23:16:40.285Z,50.30
2017-05-21T23:19:08.605Z,50.30
2017-05-21T23:21:36.912Z,50.40
2017-05-21T23:24:05.552Z,50.40
2017-05-21T23:26:33.856Z,50.60
2017-05-21T23:29:02.166Z,50.80
2017-05-21T23:31:30.887Z,50.80
2017-05-21T23:34:00.112Z,50.90
2017-05-21T23:36:28.442Z,51.00
2017-05-21T23:38:57.074Z,51.20
2017-05-21T23:41:25.405Z,51.50
2017-05-21T23:43:53.699Z,51.50
2017-05-21T23:46:22.378Z,51.60
2017-05-21T23:48:50.705Z,51.90
2017-05-21T23:51:19.041Z,52.00
2017-05-21T23:53:47.600Z,52.30
2017-05-21T23:56:15.916Z,52.40
2017-05-21T23:58:43.535Z,52.40
